createdAt,value
2023-01-30T00:01:46.594Z,18.52
2023-01-30T00:04:17.143Z,18.73
2023-01-30T00:06:45.608Z,17.45
2023-01-30T00:09:16.122Z,20.73
2023-01-30T00:11:44.035Z,16.63
2023-01-30T00:14:11.982Z,19.02
2023-01-30T00:16:40.016Z,18.55
2023-01-30T00:19:08.001Z,21.08
2023-01-30T00:21:35.977Z,16.23
2023-01-30T00:24:04.133Z,17.95
2023-01-30T00:26:33.431Z,19.38
2023-01-30T00:29:01.500Z,20.70
2023-01-30T00:31:29.472Z,22.58
2023-01-30T00:33:57.428Z,20.30
2023-01-30T00:36:25.338Z,19.23
2023-01-30T00:38:53.258Z,18.48
2023-01-30T00:41:21.883Z,19.65
2023-01-30T00:44:08.611Z,18.95
2023-01-30T00:46:54.232Z,16.58
2023-01-30T00:49:22.334Z,15.93
2023-01-30T00:51:50.223Z,14.63
2023-01-30T00:54:18.159Z,19.48
2023-01-30T00:56:46.085Z,15.95
2023-01-30T00:59:15.633Z,19.63
2023-01-30T01:01:43.594Z,16.85
2023-01-30T01:04:11.899Z,10.15
2023-01-30T01:06:39.867Z,15.27
2023-01-30T01:09:08.576Z,16.33
2023-01-30T01:11:37.185Z,17.05
2023-01-30T01:14:06.512Z,19.90
2023-01-30T01:16:36.590Z,15.30
2023-01-30T01:19:04.892Z,19.13
2023-01-30T01:21:32.877Z,16.77
2023-01-30T01:24:01.671Z,20.63
2023-01-30T01:26:29.794Z,20.00
2023-01-30T01:28:58.361Z,17.75
2023-01-30T01:31:26.503Z,16.33
2023-01-30T01:33:55.937Z,19.75
2023-01-30T01:36:51.679Z,22.85
2023-01-30T01:39:12.013Z,20.42
2023-01-30T01:41:38.904Z,19.08
2023-01-30T01:44:08.738Z,23.48
2023-01-30T01:46:39.891Z,24.08
2023-01-30T01:49:17.029Z,23.27
2023-01-30T01:51:51.830Z,22.75
2023-01-30T01:54:26.804Z,19.30
2023-01-30T01:56:54.926Z,21.48
2023-01-30T01:59:27.927Z,23.92
2023-01-30T02:01:59.362Z,32.77
2023-01-30T02:04:49.217Z,23.90
2023-01-30T02:07:19.859Z,24.42
2023-01-30T02:09:47.991Z,21.83
2023-01-30T02:12:16.590Z,25.42
2023-01-30T02:14:45.569Z,24.38
2023-01-30T02:17:13.566Z,23.85
2023-01-30T02:19:51.578Z,23.00
2023-01-30T02:22:33.168Z,20.23
2023-01-30T02:25:30.890Z,26.67
2023-01-30T02:28:30.049Z,25.45
2023-01-30T02:31:28.315Z,25.20
2023-01-30T02:34:08.767Z,21.67
2023-01-30T02:36:47.784Z,25.67
2023-01-30T02:39:27.986Z,21.67
2023-01-30T02:42:06.612Z,23.65
2023-01-30T02:44:43.809Z,22.83
2023-01-30T02:47:17.217Z,20.75
2023-01-30T02:49:50.742Z,23.65
2023-01-30T02:52:18.771Z,20.15
2023-01-30T02:54:46.735Z,23.15
2023-01-30T02:57:21.180Z,23.08
2023-01-30T02:59:52.163Z,26.85
2023-01-30T03:02:43.271Z,23.58
2023-01-30T03:05:30.114Z,23.63
2023-01-30T03:08:13.261Z,21.40
2023-01-30T03:10:50.778Z,17.67
2023-01-30T03:13:27.313Z,19.98
2023-01-30T03:16:01.010Z,21.13
2023-01-30T03:18:30.806Z,24.83
2023-01-30T03:21:05.541Z,19.08
2023-01-30T03:23:33.631Z,20.85
2023-01-30T03:26:04.287Z,20.58
2023-01-30T03:28:33.299Z,22.35
2023-01-30T03:31:01.279Z,17.73
2023-01-30T03:33:30.621Z,18.00
2023-01-30T03:35:58.725Z,21.65
2023-01-30T03:38:26.683Z,18.48
2023-01-30T03:40:54.701Z,19.20
2023-01-30T03:43:23.825Z,18.02
2023-01-30T03:45:51.714Z,15.48
2023-01-30T03:48:19.722Z,17.63
2023-01-30T03:50:49.005Z,17.92
2023-01-30T03:53:16.966Z,18.73
2023-01-30T03:55:45.944Z,18.80
2023-01-30T03:58:13.998Z,19.02
2023-01-30T04:00:42.008Z,21.67
2023-01-30T04:03:10.037Z,16.23
2023-01-30T04:05:37.936Z,24.90
2023-01-30T04:08:07.375Z,13.70
2023-01-30T04:10:35.272Z,17.00
2023-01-30T04:13:03.216Z,18.05
2023-01-30T04:15:31.125Z,19.30
2023-01-30T04:17:59.060Z,18.45
2023-01-30T04:20:27.109Z,19.02
2023-01-30T04:22:55.750Z,18.10
2023-01-30T04:25:25.073Z,17.55
2023-01-30T04:27:53.106Z,16.80
2023-01-30T04:30:21.261Z,18.23
2023-01-30T04:32:49.205Z,20.52
2023-01-30T04:35:17.481Z,17.25
2023-01-30T04:37:45.550Z,20.90
2023-01-30T04:40:13.999Z,18.00
2023-01-30T04:42:43.317Z,16.73
2023-01-30T04:45:12.219Z,19.73
2023-01-30T04:47:40.189Z,21.20
2023-01-30T04:50:09.076Z,26.50
2023-01-30T04:52:38.913Z,24.00
2023-01-30T04:55:08.331Z,18.75
2023-01-30T04:57:36.249Z,19.70
2023-01-30T05:00:07.073Z,22.63
2023-01-30T05:02:34.981Z,21.25
2023-01-30T05:05:02.868Z,17.70
2023-01-30T05:07:30.777Z,20.20
2023-01-30T05:09:58.762Z,17.55
2023-01-30T05:12:26.712Z,20.23
2023-01-30T05:14:54.661Z,22.00
2023-01-30T05:17:24.086Z,18.25
2023-01-30T05:19:52.071Z,19.27
2023-01-30T05:22:20.005Z,18.27
2023-01-30T05:24:48.694Z,17.67
2023-01-30T05:27:16.722Z,20.75
2023-01-30T05:29:44.698Z,20.70
2023-01-30T05:32:15.097Z,15.07
2023-01-30T05:34:44.504Z,19.77
2023-01-30T05:37:12.938Z,23.33
2023-01-30T05:39:40.890Z,26.13
2023-01-30T05:42:08.874Z,19.13
2023-01-30T05:44:36.798Z,17.13
2023-01-30T05:47:04.790Z,19.65
2023-01-30T05:49:32.713Z,18.70
2023-01-30T05:52:02.028Z,19.00
2023-01-30T05:54:29.970Z,22.73
2023-01-30T05:56:57.908Z,20.80
2023-01-30T05:59:25.838Z,22.75
2023-01-30T06:01:53.755Z,16.30
2023-01-30T06:04:21.702Z,24.55
2023-01-30T06:06:50.834Z,20.08
2023-01-30T06:09:20.188Z,17.92
2023-01-30T06:11:48.120Z,17.65
2023-01-30T06:14:16.029Z,18.95
2023-01-30T06:16:43.978Z,18.02
2023-01-30T06:19:12.713Z,23.73
2023-01-30T06:21:40.691Z,26.00
2023-01-30T06:24:08.910Z,19.90
2023-01-30T06:26:38.222Z,21.23
2023-01-30T06:29:06.367Z,24.27
2023-01-30T06:31:35.044Z,21.17
2023-01-30T06:34:03.048Z,25.77
2023-01-30T06:36:31.043Z,23.75
2023-01-30T06:38:59.000Z,22.27
2023-01-30T06:41:26.949Z,21.90
2023-01-30T06:43:56.829Z,23.42
2023-01-30T06:46:24.989Z,18.40
2023-01-30T06:48:53.041Z,21.55
2023-01-30T06:51:20.950Z,17.67
2023-01-30T06:53:49.910Z,15.80
2023-01-30T06:56:18.569Z,19.17
2023-01-30T06:58:46.654Z,20.85
2023-01-30T07:01:16.040Z,23.15
2023-01-30T07:03:44.034Z,20.02
2023-01-30T07:06:11.895Z,24.30
2023-01-30T07:08:40.931Z,21.90
2023-01-30T07:11:08.826Z,17.95
2023-01-30T07:13:36.828Z,23.08
2023-01-30T07:16:04.831Z,25.98
2023-01-30T07:18:34.194Z,20.85
2023-01-30T07:21:02.127Z,23.13
2023-01-30T07:23:30.057Z,21.77
2023-01-30T07:25:57.953Z,18.25
2023-01-30T07:28:25.838Z,22.08
2023-01-30T07:30:53.758Z,22.55
2023-01-30T07:33:21.778Z,23.65
2023-01-30T07:35:51.049Z,15.93
2023-01-30T07:38:19.049Z,20.42
2023-01-30T07:40:46.985Z,18.17
2023-01-30T07:43:15.849Z,14.40
2023-01-30T07:45:45.690Z,20.05
2023-01-30T07:48:15.309Z,20.98
2023-01-30T07:50:43.752Z,19.33
2023-01-30T07:53:15.278Z,21.90
2023-01-30T07:55:43.489Z,18.17
2023-01-30T07:58:14.692Z,28.90
2023-01-30T08:00:42.977Z,21.70
2023-01-30T08:03:13.542Z,22.65
2023-01-30T08:05:41.462Z,21.67
2023-01-30T08:08:09.468Z,22.35
2023-01-30T08:10:38.764Z,17.42
2023-01-30T08:13:06.691Z,18.38
2023-01-30T08:15:34.619Z,26.02
2023-01-30T08:18:03.223Z,21.48
2023-01-30T08:20:31.173Z,22.83
2023-01-30T08:23:00.662Z,22.08
2023-01-30T08:25:28.894Z,23.80
2023-01-30T08:28:00.370Z,25.20
2023-01-30T08:30:29.673Z,25.00
2023-01-30T08:32:58.827Z,20.45
2023-01-30T08:35:27.880Z,17.60
2023-01-30T08:37:55.983Z,21.23
2023-01-30T08:40:24.027Z,19.15
2023-01-30T08:42:51.963Z,15.93
2023-01-30T08:45:21.323Z,28.05
2023-01-30T08:47:52.299Z,21.35
2023-01-30T08:50:20.666Z,24.83
2023-01-30T08:52:48.714Z,17.35
2023-01-30T08:55:18.107Z,15.95
2023-01-30T08:57:46.037Z,19.63
2023-01-30T09:00:15.057Z,16.35
2023-01-30T09:02:47.568Z,14.05
2023-01-30T09:05:15.624Z,23.90
2023-01-30T09:07:43.594Z,29.20
2023-01-30T09:10:12.475Z,21.75
2023-01-30T09:12:40.553Z,20.80
2023-01-30T09:15:10.006Z,21.17
2023-01-30T09:17:38.391Z,18.38
2023-01-30T09:20:09.874Z,21.00
2023-01-30T09:22:38.137Z,16.77
2023-01-30T09:25:07.015Z,22.92
2023-01-30T09:27:35.216Z,22.88
2023-01-30T09:30:03.246Z,22.27
2023-01-30T09:32:31.176Z,19.25
2023-01-30T09:34:59.105Z,15.23
2023-01-30T09:37:28.416Z,17.27
2023-01-30T09:39:56.366Z,17.38
2023-01-30T09:42:47.008Z,20.73
2023-01-30T09:45:44.745Z,18.38
2023-01-30T09:48:19.651Z,25.92
2023-01-30T09:51:07.987Z,23.38
2023-01-30T09:53:49.166Z,25.92
2023-01-30T09:56:17.248Z,23.38
2023-01-30T09:58:49.033Z,26.33
2023-01-30T10:01:24.002Z,18.35
2023-01-30T10:04:06.421Z,21.48
2023-01-30T10:06:42.391Z,21.80
2023-01-30T10:09:18.409Z,20.50
2023-01-30T10:12:00.564Z,19.77
2023-01-30T10:14:51.740Z,23.42
2023-01-30T10:17:32.982Z,22.02
2023-01-30T10:20:15.193Z,15.80
2023-01-30T10:22:53.369Z,29.10
2023-01-30T10:25:30.485Z,22.95
2023-01-30T10:28:05.008Z,22.08
2023-01-30T10:30:33.672Z,20.42
2023-01-30T10:33:07.203Z,23.73
2023-01-30T10:35:38.069Z,27.33
2023-01-30T10:38:14.880Z,26.58
2023-01-30T10:40:48.585Z,21.35
2023-01-30T10:43:23.996Z,20.80
2023-01-30T10:46:02.814Z,19.35
2023-01-30T10:48:51.804Z,25.23
2023-01-30T10:51:28.964Z,20.48
2023-01-30T10:54:03.438Z,16.13
2023-01-30T10:56:41.143Z,18.33
2023-01-30T10:59:23.172Z,18.17
2023-01-30T11:01:59.393Z,21.42
2023-01-30T11:04:32.459Z,20.75
2023-01-30T11:07:02.120Z,20.60
2023-01-30T11:09:40.895Z,17.20
2023-01-30T11:12:10.417Z,26.83
2023-01-30T11:14:56.577Z,17.08
2023-01-30T11:17:32.069Z,15.40
2023-01-30T11:20:06.131Z,18.27
2023-01-30T11:22:35.957Z,22.65
2023-01-30T11:25:07.579Z,21.17
2023-01-30T11:27:36.973Z,22.98
2023-01-30T11:30:16.080Z,15.90
2023-01-30T11:32:45.256Z,23.38
2023-01-30T11:35:25.585Z,18.35
2023-01-30T11:37:54.700Z,17.73
2023-01-30T11:40:31.687Z,18.27
2023-01-30T11:43:07.243Z,22.50
2023-01-30T11:45:40.766Z,15.65
2023-01-30T11:48:33.496Z,18.77
2023-01-30T11:51:10.823Z,16.60
2023-01-30T11:53:42.397Z,17.35
2023-01-30T11:56:17.008Z,21.70
2023-01-30T11:58:50.413Z,18.33
2023-01-30T12:01:18.549Z,21.98
2023-01-30T12:03:49.988Z,22.95
2023-01-30T12:06:25.938Z,25.17
2023-01-30T12:08:56.045Z,14.02
2023-01-30T12:11:30.369Z,19.50
2023-01-30T12:14:10.350Z,17.92
2023-01-30T12:16:51.900Z,24.75
2023-01-30T12:19:30.798Z,19.40
2023-01-30T12:22:05.418Z,13.00
2023-01-30T12:24:39.686Z,18.55
2023-01-30T12:27:15.283Z,18.83
2023-01-30T12:29:58.864Z,12.80
2023-01-30T12:32:28.900Z,14.80
2023-01-30T12:34:57.438Z,20.27
2023-01-30T12:37:52.657Z,14.43
2023-01-30T12:40:32.289Z,11.10
2023-01-30T12:43:23.548Z,16.52
2023-01-30T12:46:04.592Z,15.88
2023-01-30T12:49:12.107Z,15.50
2023-01-30T12:51:57.507Z,10.38
2023-01-30T12:54:38.419Z,10.57
2023-01-30T12:57:15.867Z,15.25
2023-01-30T12:59:54.847Z,10.35
2023-01-30T13:02:47.375Z,16.20
2023-01-30T13:05:36.711Z,13.25
2023-01-30T13:08:25.046Z,15.25
2023-01-30T13:11:01.261Z,12.23
2023-01-30T13:13:43.147Z,8.93
2023-01-30T13:16:21.179Z,13.57
2023-01-30T13:18:55.688Z,11.18
2023-01-30T13:21:31.142Z,11.85
2023-01-30T13:24:15.191Z,9.20
2023-01-30T13:26:45.520Z,12.23
2023-01-30T13:29:17.441Z,11.40
2023-01-30T13:31:53.469Z,11.27
2023-01-30T13:34:29.437Z,17.48
2023-01-30T13:37:03.985Z,8.88
2023-01-30T13:39:42.526Z,11.82
2023-01-30T13:42:21.288Z,12.18
2023-01-30T13:44:51.448Z,12.23
2023-01-30T13:47:35.647Z,10.82
2023-01-30T13:52:48.007Z,9.65
2023-01-30T13:55:26.934Z,15.60
2023-01-30T13:58:03.416Z,19.55
2023-01-30T14:00:33.289Z,17.80
2023-01-30T14:03:31.562Z,14.02
2023-01-30T14:06:33.880Z,12.82
2023-01-30T14:09:18.181Z,6.55
2023-01-30T14:14:30.907Z,17.33
2023-01-30T14:17:10.135Z,12.65
2023-01-30T14:19:55.359Z,13.10
2023-01-30T14:22:36.288Z,12.20
2023-01-30T14:25:47.040Z,19.33
2023-01-30T14:28:53.673Z,13.15
2023-01-30T14:31:52.267Z,10.02
2023-01-30T14:34:48.149Z,11.57
2023-01-30T14:37:46.048Z,15.90
2023-01-30T14:40:37.126Z,11.13
2023-01-30T14:43:40.656Z,9.48
2023-01-30T14:46:33.963Z,10.50
2023-01-30T14:49:05.659Z,11.90
2023-01-30T14:51:37.086Z,13.93
2023-01-30T14:54:20.665Z,11.13
2023-01-30T14:56:54.231Z,12.65
2023-01-30T14:59:26.109Z,11.85
2023-01-30T15:02:00.820Z,10.73
2023-01-30T15:04:32.882Z,11.85
2023-01-30T15:07:03.631Z,13.05
2023-01-30T15:09:33.721Z,10.85
2023-01-30T15:12:21.447Z,10.50
2023-01-30T15:15:02.724Z,8.07
2023-01-30T15:17:43.065Z,11.30
2023-01-30T15:20:27.452Z,9.98
2023-01-30T15:23:13.034Z,13.93
2023-01-30T15:26:01.143Z,9.77
2023-01-30T15:28:45.929Z,14.23
2023-01-30T15:31:20.236Z,10.50
2023-01-30T15:33:53.179Z,9.68
2023-01-30T15:36:31.058Z,15.27
2023-01-30T15:39:01.910Z,12.82
2023-01-30T15:41:33.818Z,11.98
2023-01-30T15:44:20.464Z,8.15
2023-01-30T15:46:54.921Z,9.68
2023-01-30T15:49:47.599Z,13.68
2023-01-30T15:52:19.567Z,15.02
2023-01-30T15:54:53.423Z,22.73
2023-01-30T15:59:56.630Z,7.05
2023-01-30T16:02:30.672Z,13.77
2023-01-30T16:05:17.961Z,8.23
2023-01-30T16:07:47.794Z,9.57
2023-01-30T16:10:18.297Z,7.78
2023-01-30T16:12:50.392Z,14.77
2023-01-30T16:15:25.242Z,10.90
2023-01-30T16:18:03.677Z,10.57
2023-01-30T16:20:48.700Z,9.27
2023-01-30T16:23:30.611Z,10.32
2023-01-30T16:26:01.722Z,10.27
2023-01-30T16:28:32.590Z,15.82
2023-01-30T16:31:03.862Z,11.43
2023-01-30T16:33:37.029Z,12.77
2023-01-30T16:36:07.013Z,16.85
2023-01-30T16:38:39.193Z,10.82
2023-01-30T16:41:07.162Z,8.63
2023-01-30T16:43:36.498Z,8.50
2023-01-30T16:46:40.132Z,7.78
2023-01-30T16:49:16.258Z,6.72
2023-01-30T16:51:44.597Z,8.13
2023-01-30T16:54:20.457Z,5.50
2023-01-30T16:56:52.274Z,5.85
2023-01-30T16:59:30.957Z,9.05
2023-01-30T17:01:59.967Z,6.03
2023-01-30T17:04:30.954Z,7.47
2023-01-30T17:07:01.221Z,6.30
2023-01-30T17:09:44.610Z,5.88
2023-01-30T17:12:43.716Z,4.55
2023-01-30T17:15:31.056Z,5.20
2023-01-30T17:17:59.694Z,8.00
2023-01-30T17:20:39.235Z,6.30
2023-01-30T17:23:10.651Z,5.95
2023-01-30T17:25:42.973Z,6.53
2023-01-30T17:28:21.444Z,4.55
2023-01-30T17:30:51.407Z,6.97
2023-01-30T17:33:19.440Z,8.48
2023-01-30T17:35:47.560Z,8.13
2023-01-30T17:38:15.590Z,11.98
2023-01-30T17:40:44.024Z,6.05
2023-01-30T17:43:13.291Z,9.98
2023-01-30T17:45:41.723Z,6.13
2023-01-30T17:48:13.796Z,9.70
2023-01-30T17:50:41.702Z,6.45
2023-01-30T17:53:09.622Z,6.25
2023-01-30T17:55:37.549Z,6.13
2023-01-30T17:58:05.660Z,5.53
2023-01-30T18:00:33.582Z,7.13
2023-01-30T18:03:01.514Z,4.45
2023-01-30T18:05:31.207Z,5.03
2023-01-30T18:07:59.113Z,4.50
2023-01-30T18:10:27.170Z,4.72
2023-01-30T18:12:55.068Z,4.68
2023-01-30T18:15:23.033Z,5.07
2023-01-30T18:17:54.954Z,5.07
2023-01-30T18:20:22.936Z,7.78
2023-01-30T18:22:52.345Z,6.95
2023-01-30T18:25:20.685Z,4.78
2023-01-30T18:27:48.941Z,5.07
2023-01-30T18:30:18.362Z,4.50
2023-01-30T18:32:53.607Z,4.35
2023-01-30T18:35:22.221Z,4.57
2023-01-30T18:37:51.064Z,7.35
2023-01-30T18:40:21.944Z,7.45
2023-01-30T18:42:50.314Z,6.20
2023-01-30T18:45:18.452Z,8.27
2023-01-30T18:47:46.431Z,5.50
2023-01-30T18:50:14.463Z,9.68
2023-01-30T18:52:42.407Z,10.63
2023-01-30T18:55:10.861Z,7.35
2023-01-30T18:57:40.226Z,6.40
2023-01-30T19:00:10.011Z,6.47
2023-01-30T19:02:38.079Z,5.93
2023-01-30T19:05:06.581Z,5.53
2023-01-30T19:07:36.604Z,6.60
2023-01-30T19:10:04.845Z,15.13
2023-01-30T19:12:50.369Z,15.52
2023-01-30T19:15:19.725Z,9.25
2023-01-30T19:17:47.613Z,22.17
2023-01-30T19:20:15.525Z,18.67
2023-01-30T19:22:43.407Z,22.13
2023-01-30T19:25:11.567Z,66.88
2023-01-30T19:27:39.998Z,50.38
2023-01-30T19:30:09.543Z,13.98
2023-01-30T19:32:39.949Z,21.20
2023-01-30T19:35:08.656Z,9.77
2023-01-30T19:37:38.507Z,9.27
2023-01-30T19:40:10.877Z,8.48
2023-01-30T19:42:44.404Z,7.20
2023-01-30T19:45:15.211Z,8.32
2023-01-30T19:47:45.217Z,7.40
2023-01-30T19:50:14.725Z,9.77
2023-01-30T19:52:42.616Z,10.38
2023-01-30T19:55:10.915Z,6.15
2023-01-30T19:57:39.052Z,12.02
2023-01-30T20:00:10.023Z,7.38
2023-01-30T20:02:40.650Z,9.57
2023-01-30T20:05:11.950Z,9.43
2023-01-30T20:07:42.408Z,10.82
2023-01-30T20:10:13.013Z,9.50
2023-01-30T20:12:42.938Z,10.82
2023-01-30T20:15:13.099Z,10.45
2023-01-30T20:17:42.979Z,11.35
2023-01-30T20:20:14.443Z,11.23
2023-01-30T20:22:46.199Z,9.93
2023-01-30T20:25:15.222Z,9.15
2023-01-30T20:27:45.854Z,10.27
2023-01-30T20:30:16.345Z,11.80
2023-01-30T20:32:45.413Z,14.60
2023-01-30T20:35:15.785Z,13.25
2023-01-30T20:37:45.089Z,11.20
2023-01-30T20:40:15.602Z,13.10
2023-01-30T20:42:44.781Z,10.10
2023-01-30T20:45:13.463Z,13.95
2023-01-30T20:47:42.234Z,12.02
2023-01-30T20:50:14.110Z,13.25
2023-01-30T20:52:44.248Z,11.25
2023-01-30T20:55:12.608Z,15.00
2023-01-30T20:57:43.871Z,15.48
2023-01-30T21:00:14.760Z,12.10
2023-01-30T21:02:43.327Z,14.15
2023-01-30T21:05:13.007Z,10.13
2023-01-30T21:07:41.182Z,10.23
2023-01-30T21:10:12.347Z,11.52
2023-01-30T21:12:40.528Z,14.90
2023-01-30T21:15:09.789Z,12.15
2023-01-30T21:17:38.387Z,11.50
2023-01-30T21:20:06.978Z,11.32
2023-01-30T21:22:34.917Z,13.05
2023-01-30T21:25:02.874Z,14.50
2023-01-30T21:27:32.152Z,12.65
2023-01-30T21:30:00.537Z,7.82
2023-01-30T21:32:28.441Z,12.88
2023-01-30T21:34:56.368Z,11.45
2023-01-30T21:37:41.649Z,11.48
2023-01-30T21:40:28.855Z,11.95
2023-01-30T21:43:16.282Z,13.70
2023-01-30T21:45:44.594Z,10.38
2023-01-30T21:48:12.599Z,11.60
2023-01-30T21:50:40.989Z,14.23
2023-01-30T21:53:08.988Z,11.00
2023-01-30T21:55:36.895Z,11.50
2023-01-30T21:58:06.206Z,12.77
2023-01-30T22:00:34.062Z,10.93
2023-01-30T22:03:01.982Z,14.25
2023-01-30T22:05:36.531Z,14.63
2023-01-30T22:08:05.155Z,11.95
2023-01-30T22:10:33.067Z,14.07
2023-01-30T22:13:01.320Z,15.63
2023-01-30T22:15:30.706Z,12.55
2023-01-30T22:17:58.607Z,13.52
2023-01-30T22:20:26.612Z,10.85
2023-01-30T22:22:54.977Z,12.02
2023-01-30T22:25:22.955Z,12.30
2023-01-30T22:27:50.978Z,8.98
2023-01-30T22:30:19.563Z,10.02
2023-01-30T22:32:48.878Z,11.85
2023-01-30T22:35:17.182Z,10.43
2023-01-30T22:37:45.331Z,11.00
2023-01-30T22:40:13.831Z,11.55
2023-01-30T22:42:47.613Z,11.10
2023-01-30T22:45:15.568Z,12.35
2023-01-30T22:47:43.448Z,14.65
2023-01-30T22:50:13.014Z,12.68
2023-01-30T22:52:40.877Z,14.90
2023-01-30T22:55:09.488Z,13.43
2023-01-30T22:57:37.376Z,17.17
2023-01-30T23:00:06.989Z,16.15
2023-01-30T23:02:35.927Z,13.70
2023-01-30T23:05:03.919Z,15.00
2023-01-30T23:07:33.528Z,15.52
2023-01-30T23:10:01.429Z,13.45
2023-01-30T23:12:46.775Z,18.80
2023-01-30T23:15:14.696Z,19.55
2023-01-30T23:18:00.155Z,16.17
2023-01-30T23:20:28.131Z,19.52
2023-01-30T23:22:57.382Z,18.38
2023-01-30T23:25:25.274Z,17.95
2023-01-30T23:27:53.174Z,20.05
2023-01-30T23:30:21.132Z,20.00
2023-01-30T23:32:48.990Z,21.23
2023-01-30T23:35:17.402Z,19.17
2023-01-30T23:38:03.404Z,16.20
2023-01-30T23:40:32.740Z,15.55
2023-01-30T23:43:00.638Z,22.23
2023-01-30T23:45:29.530Z,18.02
2023-01-30T23:47:57.401Z,17.40
2023-01-30T23:50:25.289Z,19.08
2023-01-30T23:52:53.228Z,21.13
2023-01-30T23:55:21.415Z,18.02
2023-01-30T23:57:50.916Z,19.98
